Portada
METAR-TAF:

METAR-TAF

Aeropuertos :

Semnán, Irán

latitud: 35-33N, longitud: 053-23E, altitud: 1171 m

Observación

El informe se hizo hace 1 hora y 4 minutos, a las 20:00 UTC
Viento 4 kt del este
Temperatura 12°C
Humedad 38%
Presión 1012 hPa
Visibilidad 10 km o más
sin nubes por debajo de 1500 m y sin presencia de cumulonimbus.

METAR: OIIS 202000Z 09004KT CAVOK 12/M02 Q1012

Hora: 01:34 (21:04 UTC)


TAF: falta

Observaciones y pronósticos meteorológicos de más de 4000 aeropuertos (mensajes METAR y TAF).

Los puntos amarillos y rojos representan las estaciones disponibles.

Ponga el ratón en el punto deseado para ver el nombre de la estación.

Haga clic para ver las observaciones y los pronósticos meteorológicos.

Para cambiar el mapa : haga clic en los botones verdes con una cruz de color negro para hacer un zoom, en el botón verde con un guión para alejar o en las flechas verdes para mapas adyacentes.


METAR-TAF: